Time;durP1;ratioP1;P1;durP2;ratioP2;P2;SDS_P1;SDS_P2;PMS_P1;PMS_P2;Temp;Humidity;BMP_temperature;BMP_pressure;BME280_temperature;BME280_humidity;BME280_pressure;Samples;Min_cycle;Max_cycle;Signal;HPM_P1;HPM_P2
2023/03/01 00:01:51;;;;;;;34.23;13.23;;;;;;;43.05;35.12;101327.44;6129390;23;20421;-94
2023/03/01 00:04:16;;;;;;;31.13;13.43;;;;;;;43.06;35.38;101327.09;6154822;23;20455;-87
2023/03/01 00:07:07;;;;;;;28.83;11.97;;;;;;;43.07;35.09;101327.91;6128853;23;20484;-91
2023/03/01 00:10:15;;;;;;;38.10;12.17;;;;;;;43.11;35.07;101326.13;6155469;23;20710;-93
2023/03/01 00:12:42;;;;;;;25.07;12.37;;;;;;;43.13;35.40;101307.47;6146733;23;20424;-93
2023/03/01 00:15:08;;;;;;;39.50;15.00;;;;;;;43.08;35.21;101305.72;6129861;23;20385;-93
2023/03/01 00:17:34;;;;;;;18.53;9.60;;;;;;;43.09;35.38;101322.91;6129600;23;20389;-93
2023/03/01 00:20:26;;;;;;;24.73;14.00;;;;;;;42.83;32.98;101310.19;6128789;23;20395;-92
2023/03/01 00:23:09;;;;;;;33.10;14.63;;;;;;;42.17;31.73;101309.81;6153644;23;20943;-91
2023/03/01 00:25:45;;;;;;;38.03;17.70;;;;;;;41.72;31.85;101303.91;6157305;23;20404;-89
2023/03/01 00:28:47;;;;;;;27.93;14.70;;;;;;;41.82;31.89;101318.03;6155684;23;20384;-93
2023/03/01 00:31:17;;;;;;;30.30;14.50;;;;;;;41.62;32.51;101315.97;6130869;23;20388;-93
2023/03/01 00:33:43;;;;;;;27.20;14.17;;;;;;;41.64;32.83;101321.09;6131469;23;20443;-93
2023/03/01 00:36:10;;;;;;;29.70;14.93;;;;;;;41.76;33.42;101303.00;6131255;23;20769;-93
2023/03/01 00:38:38;;;;;;;32.83;14.60;;;;;;;41.54;33.79;101290.31;6130204;23;20447;-91
2023/03/01 00:41:12;;;;;;;39.10;16.60;;;;;;;41.30;34.67;101285.31;6130455;23;20432;-88
2023/03/01 00:43:38;;;;;;;34.57;12.83;;;;;;;41.31;34.74;101283.38;6130722;23;20385;-92
2023/03/01 00:46:08;;;;;;;27.87;14.20;;;;;;;41.58;34.14;101274.13;6130251;23;20391;-87
2023/03/01 00:48:34;;;;;;;26.93;13.63;;;;;;;41.69;33.99;101286.31;6156926;23;20830;-92
2023/03/01 00:51:21;;;;;;;25.73;13.07;;;;;;;41.80;34.11;101289.50;6154803;23;20468;-87
2023/03/01 00:54:05;;;;;;;25.50;11.37;;;;;;;41.85;33.70;101273.00;6130636;23;20404;-92
2023/03/01 00:56:45;;;;;;;31.53;10.50;;;;;;;41.86;33.70;101260.97;6132739;23;20384;-92
2023/03/01 00:59:12;;;;;;;27.17;13.97;;;;;;;41.91;34.03;101262.72;6127337;23;20404;-92
2023/03/01 01:01:42;;;;;;;22.33;11.67;;;;;;;41.89;34.30;101262.25;6152900;23;20506;-92
2023/03/01 01:04:12;;;;;;;27.50;12.67;;;;;;;41.88;33.49;101266.91;6125415;23;20388;-87
2023/03/01 01:06:48;;;;;;;20.03;9.33;;;;;;;41.83;33.36;101264.34;6129898;23;20798;-88
2023/03/01 01:09:17;;;;;;;25.60;8.80;;;;;;;41.86;33.67;101258.25;6108515;23;20361;-85
2023/03/01 01:11:48;;;;;;;24.13;8.30;;;;;;;41.84;33.63;101247.69;6129955;23;20428;-89
2023/03/01 01:17:38;;;;;;;19.80;9.33;;;;;;;41.86;33.96;101250.06;6103160;23;20393;-93
2023/03/01 01:20:05;;;;;;;26.80;9.50;;;;;;;41.77;33.69;101255.56;6126037;23;20755;-92
2023/03/01 01:22:31;;;;;;;26.17;9.93;;;;;;;41.49;33.90;101260.50;6125258;23;20401;-92
2023/03/01 01:24:57;;;;;;;26.07;8.67;;;;;;;41.70;32.97;101257.94;6125291;23;20399;-91
2023/03/01 01:28:11;;;;;;;19.93;9.13;;;;;;;41.64;33.29;101242.09;6125042;23;20394;-91
2023/03/01 01:30:46;;;;;;;18.53;8.37;;;;;;;41.61;32.68;101240.78;6117122;23;20394;-91
2023/03/01 01:33:13;;;;;;;18.63;9.03;;;;;;;41.74;32.21;101236.28;6125148;23;20469;-92
2023/03/01 01:35:41;;;;;;;23.63;8.30;;;;;;;41.73;31.92;101235.50;6124188;23;20404;-91
2023/03/01 01:38:07;;;;;;;22.20;8.87;;;;;;;41.73;32.29;101234.69;6123829;23;20749;-91
2023/03/01 01:40:34;;;;;;;27.30;9.50;;;;;;;41.79;32.11;101231.50;6125272;23;20430;-93
2023/03/01 01:43:08;;;;;;;35.50;8.00;;;;;;;41.84;32.26;101234.06;6126702;23;20389;-91
2023/03/01 01:45:44;;;;;;;16.97;7.47;;;;;;;41.78;32.74;101232.63;6125359;23;20409;-92
2023/03/01 01:48:18;;;;;;;28.07;8.17;;;;;;;41.73;32.01;101230.03;6125489;23;20381;-92
2023/03/01 01:50:59;;;;;;;22.27;8.70;;;;;;;41.68;31.69;101232.97;6125813;23;20886;-87
2023/03/01 01:53:26;;;;;;;16.93;7.10;;;;;;;41.76;31.01;101218.53;6122834;23;20448;-92
2023/03/01 01:55:58;;;;;;;22.37;8.53;;;;;;;41.73;30.53;101202.00;6123803;23;20457;-95
2023/03/01 01:58:28;;;;;;;15.23;6.47;;;;;;;41.71;30.57;101196.88;6126186;23;20409;-95
2023/03/01 02:00:55;;;;;;;18.20;7.60;;;;;;;41.64;30.00;101177.53;6125729;23;20436;-95
2023/03/01 02:03:28;;;;;;;20.80;7.20;;;;;;;41.68;30.11;101172.22;6125769;23;20386;-95
2023/03/01 02:06:01;;;;;;;24.27;8.20;;;;;;;41.71;30.60;101163.41;6124547;23;20783;-87
2023/03/01 02:08:56;;;;;;;14.40;8.30;;;;;;;41.78;30.99;101142.72;6124380;23;20422;-91
2023/03/01 02:11:45;;;;;;;21.70;8.63;;;;;;;41.86;30.85;101132.91;6122827;23;20409;-91
2023/03/01 02:14:12;;;;;;;21.07;8.67;;;;;;;41.89;31.18;101136.91;6142393;23;20436;-88
2023/03/01 02:16:39;;;;;;;18.43;8.97;;;;;;;41.91;30.67;101129.22;6129928;23;20757;-90
2023/03/01 02:19:22;;;;;;;19.83;7.50;;;;;;;41.86;30.97;101119.28;6155871;23;20830;-92
2023/03/01 02:22:29;;;;;;;16.60;8.60;;;;;;;41.87;31.44;101126.34;6155110;23;20459;-91
2023/03/01 02:25:02;;;;;;;18.23;9.80;;;;;;;41.88;31.35;101130.69;6129934;23;20385;-89
2023/03/01 02:28:03;;;;;;;17.20;7.30;;;;;;;41.87;31.53;101123.63;6151959;23;20385;-93
2023/03/01 02:33:56;;;;;;;21.17;8.90;;;;;;;41.99;30.70;101098.38;6156122;23;20896;-93
2023/03/01 02:36:29;;;;;;;21.47;10.17;;;;;;;42.00;31.10;101089.09;6154980;23;20392;-92
2023/03/01 02:38:59;;;;;;;18.30;8.10;;;;;;;41.77;31.16;101094.03;6130223;23;20413;-92
2023/03/01 02:41:28;;;;;;;20.93;10.87;;;;;;;41.86;30.93;101109.19;6127426;23;20753;-85
2023/03/01 02:43:55;;;;;;;20.77;8.80;;;;;;;41.95;30.62;101100.19;6128024;23;20389;-85
2023/03/01 02:46:23;;;;;;;15.10;9.50;;;;;;;41.91;30.60;101096.50;6128481;23;20423;-85
2023/03/01 02:48:55;;;;;;;18.20;9.03;;;;;;;41.95;30.52;101102.91;6128825;23;20397;-84
2023/03/01 02:52:07;;;;;;;21.47;9.30;;;;;;;41.90;30.55;101092.19;6129537;23;20377;-89
2023/03/01 02:54:47;;;;;;;17.73;9.10;;;;;;;41.95;30.56;101081.91;6155658;23;20369;-89
2023/03/01 02:57:14;;;;;;;17.60;8.57;;;;;;;41.97;30.53;101065.22;6129214;23;20826;-90
2023/03/01 02:59:44;;;;;;;17.20;7.00;;;;;;;41.95;30.55;101056.59;6154318;23;20389;-90
2023/03/01 03:02:37;;;;;;;17.60;9.27;;;;;;;41.91;30.59;101061.88;6129027;23;20560;-85
2023/03/01 03:05:17;;;;;;;24.80;8.93;;;;;;;41.91;30.70;101050.19;6129006;23;20385;-88
2023/03/01 03:07:52;;;;;;;18.67;8.63;;;;;;;41.93;30.85;101031.56;6129567;23;20420;-88
2023/03/01 03:10:40;;;;;;;22.93;8.17;;;;;;;41.88;30.43;101026.34;6103690;23;20805;-84
2023/03/01 03:13:09;;;;;;;19.10;9.43;;;;;;;41.83;30.73;101019.94;6128657;23;20413;-85
2023/03/01 03:15:39;;;;;;;14.47;7.43;;;;;;;41.71;31.13;101013.59;6128541;23;20412;-89
2023/03/01 03:18:08;;;;;;;17.67;9.13;;;;;;;41.62;31.29;101016.38;6129056;23;20450;-88
2023/03/01 03:20:34;;;;;;;22.87;8.50;;;;;;;41.55;31.62;101026.94;6129420;23;20499;-92
2023/03/01 03:23:25;;;;;;;18.43;8.80;;;;;;;41.57;31.78;101013.81;6155340;23;20365;-91
2023/03/01 03:25:52;;;;;;;28.70;9.33;;;;;;;41.50;31.87;100999.94;6105962;23;20389;-92
2023/03/01 03:28:19;;;;;;;17.67;8.77;;;;;;;41.48;32.00;101018.50;6155087;23;20465;-89
2023/03/01 03:30:46;;;;;;;14.00;7.93;;;;;;;41.29;32.31;101016.94;6128832;23;20405;-84
2023/03/01 03:33:13;;;;;;;30.10;8.43;;;;;;;41.29;32.46;101007.97;6128311;23;20473;-84
2023/03/01 03:35:48;;;;;;;18.43;7.60;;;;;;;41.25;32.60;101007.03;6128511;23;20413;-85
2023/03/01 03:38:16;;;;;;;17.30;8.93;;;;;;;41.23;32.59;101017.44;6128747;23;20385;-90
2023/03/01 03:40:46;;;;;;;17.87;8.17;;;;;;;41.23;32.69;101017.44;6128995;23;20421;-85
2023/03/01 03:43:20;;;;;;;21.53;11.13;;;;;;;41.23;33.03;101007.34;6128447;23;20468;-84
2023/03/01 03:45:48;;;;;;;23.20;9.13;;;;;;;41.18;33.02;101015.69;6128353;23;20892;-84
2023/03/01 03:48:15;;;;;;;20.60;10.03;;;;;;;41.19;32.97;101021.94;6128463;23;20851;-85
2023/03/01 03:50:41;;;;;;;22.80;11.30;;;;;;;41.12;33.00;101014.28;6128246;23;20453;-82
2023/03/01 03:53:12;;;;;;;21.13;12.73;;;;;;;41.20;32.91;101021.63;6128705;23;20409;-87
2023/03/01 03:55:39;;;;;;;30.97;12.20;;;;;;;41.25;32.58;101001.56;6128555;23;20880;-84
2023/03/01 03:58:07;;;;;;;20.97;11.20;;;;;;;41.15;33.42;101001.94;6128324;23;20412;-85
2023/03/01 04:00:39;;;;;;;18.67;8.80;;;;;;;41.23;32.78;100990.22;6128229;23;20894;-84
2023/03/01 04:03:05;;;;;;;21.00;9.07;;;;;;;41.28;32.68;100985.41;6128579;23;20380;-88
2023/03/01 04:05:32;;;;;;;21.43;9.50;;;;;;;41.25;32.52;100986.06;6128682;23;20726;-86
2023/03/01 04:08:06;;;;;;;15.77;10.77;;;;;;;41.21;32.63;100982.41;6129317;23;20387;-91
2023/03/01 04:10:47;;;;;;;20.67;9.10;;;;;;;41.21;32.07;100970.72;6129157;23;20400;-88
2023/03/01 04:13:27;;;;;;;17.27;7.77;;;;;;;41.18;32.24;100965.91;6128048;23;20424;-87
2023/03/01 04:15:55;;;;;;;18.93;8.67;;;;;;;41.15;32.14;100980.19;6129260;23;20381;-88
2023/03/01 04:18:25;;;;;;;16.53;7.57;;;;;;;41.08;32.51;100975.25;6154511;23;20386;-88
2023/03/01 04:20:55;;;;;;;13.27;7.47;;;;;;;41.12;32.11;100981.63;6130136;23;20421;-87
2023/03/01 04:23:25;;;;;;;12.67;8.03;;;;;;;41.11;32.38;100980.03;6153876;23;20460;-89
2023/03/01 04:25:59;;;;;;;17.17;9.33;;;;;;;41.05;32.52;100979.41;6128683;23;20396;-89
2023/03/01 04:28:27;;;;;;;19.90;9.10;;;;;;;41.03;32.64;100984.38;6126700;23;20471;-86
2023/03/01 04:30:54;;;;;;;21.10;8.37;;;;;;;40.83;32.74;100982.34;6128338;23;20374;-84
2023/03/01 04:33:21;;;;;;;20.60;8.70;;;;;;;40.83;32.94;100973.38;6128046;23;20846;-84
2023/03/01 04:35:50;;;;;;;21.30;7.80;;;;;;;40.91;32.75;100969.84;6128314;23;20854;-85
2023/03/01 04:38:18;;;;;;;16.40;8.90;;;;;;;40.89;32.98;100963.91;6128317;23;20778;-91
2023/03/01 04:40:47;;;;;;;17.27;8.63;;;;;;;40.93;32.72;100960.22;6125770;23;20428;-88
2023/03/01 04:43:14;;;;;;;28.13;7.37;;;;;;;40.96;32.96;100961.53;6127656;23;20409;-85
2023/03/01 04:45:40;;;;;;;21.70;9.00;;;;;;;40.90;33.25;100957.34;6127845;23;20391;-83
2023/03/01 04:48:06;;;;;;;24.93;10.87;;;;;;;40.96;33.57;100958.81;6128224;23;20464;-83
2023/03/01 04:50:32;;;;;;;19.43;10.90;;;;;;;40.98;33.22;100965.50;6127293;23;20778;-83
2023/03/01 04:52:58;;;;;;;21.50;8.67;;;;;;;40.98;33.46;100960.06;6127420;23;20386;-83
2023/03/01 04:55:28;;;;;;;17.17;9.93;;;;;;;41.01;33.86;100964.06;6128010;23;20385;-85
2023/03/01 04:57:55;;;;;;;19.63;8.63;;;;;;;40.98;33.64;100964.72;6128224;23;20444;-84
2023/03/01 05:00:22;;;;;;;28.73;10.43;;;;;;;40.86;33.94;100967.28;6128164;23;20381;-84
2023/03/01 05:03:00;;;;;;;18.93;9.70;;;;;;;40.74;34.21;100971.44;6127327;23;20392;-88
2023/03/01 05:05:30;;;;;;;28.73;9.33;;;;;;;40.72;34.37;100979.16;6128670;23;20464;-87
2023/03/01 05:07:58;;;;;;;26.77;13.33;;;;;;;40.73;34.66;100978.03;6127695;23;20389;-84
2023/03/01 05:10:25;;;;;;;22.73;11.90;;;;;;;40.87;34.28;100974.31;6129429;23;20484;-85
2023/03/01 05:12:52;;;;;;;23.73;12.50;;;;;;;40.85;34.26;100971.13;6129639;23;20388;-85
2023/03/01 05:15:19;;;;;;;29.20;12.50;;;;;;;40.87;34.88;100974.31;6129324;23;20526;-85
2023/03/01 05:17:46;;;;;;;18.90;11.53;;;;;;;40.86;34.71;100973.50;6129451;23;20389;-85
2023/03/01 05:20:12;;;;;;;18.33;9.60;;;;;;;40.92;34.35;100974.97;6129764;23;20413;-85
2023/03/01 05:22:38;;;;;;;24.83;11.10;;;;;;;40.90;35.02;100974.50;6129756;23;20411;-84
2023/03/01 05:25:10;;;;;;;18.73;11.07;;;;;;;40.88;34.60;100982.13;6130643;23;20401;-94
2023/03/01 05:27:36;;;;;;;21.30;11.73;;;;;;;40.81;34.89;100988.06;6129771;23;20395;-85
2023/03/01 05:30:13;;;;;;;46.80;14.00;;;;;;;40.89;34.65;100989.19;6129624;23;20390;-85
2023/03/01 05:32:47;;;;;;;33.87;11.87;;;;;;;40.95;34.44;100984.41;6129498;23;20402;-87
2023/03/01 05:35:15;;;;;;;29.73;12.87;;;;;;;40.81;35.22;101006.31;6128777;23;20384;-88
2023/03/01 05:37:43;;;;;;;34.87;14.20;;;;;;;40.84;34.78;101024.72;6152238;23;20417;-87
2023/03/01 05:40:15;;;;;;;19.10;10.40;;;;;;;40.94;34.73;101024.41;6129726;23;20905;-84
2023/03/01 05:42:50;;;;;;;27.23;11.07;;;;;;;41.00;34.76;101025.81;6129298;23;20396;-84
2023/03/01 05:45:17;;;;;;;23.13;12.40;;;;;;;41.05;34.81;101039.25;6130955;23;20999;-85
2023/03/01 05:48:26;;;;;;;24.33;12.70;;;;;;;40.98;34.67;101038.97;6155364;23;20472;-96
2023/03/01 05:51:11;;;;;;;30.83;12.43;;;;;;;41.08;34.71;101043.28;6155952;23;20436;-95
2023/03/01 05:53:37;;;;;;;26.13;12.77;;;;;;;40.98;35.13;101035.44;6155776;23;20400;-86
2023/03/01 05:56:04;;;;;;;36.43;14.03;;;;;;;41.11;34.78;101039.91;6153866;23;20779;-85
2023/03/01 05:58:32;;;;;;;38.20;11.27;;;;;;;41.04;34.84;101039.59;6155827;23;20403;-93
2023/03/01 06:00:58;;;;;;;22.33;10.77;;;;;;;40.77;34.95;101048.91;6129271;23;20440;-87
2023/03/01 06:03:28;;;;;;;38.93;13.63;;;;;;;40.81;35.53;101058.78;6153182;23;20385;-91
2023/03/01 06:06:04;;;;;;;31.20;13.53;;;;;;;40.50;35.68;101050.00;6154262;23;20416;-91
2023/03/01 06:08:36;;;;;;;26.77;12.37;;;;;;;40.74;35.30;101057.69;6156903;23;20461;-90
2023/03/01 06:11:07;;;;;;;37.40;14.80;;;;;;;40.72;35.22;101044.41;6154579;23;20416;-93
2023/03/01 06:13:33;;;;;;;38.50;14.50;;;;;;;40.67;35.70;101055.47;6155398;23;20381;-86
2023/03/01 06:15:59;;;;;;;35.47;12.10;;;;;;;40.55;35.65;101058.81;6153920;23;20476;-85
2023/03/01 06:18:25;;;;;;;36.37;13.43;;;;;;;40.41;35.32;101069.03;6153576;23;20779;-85
2023/03/01 06:20:57;;;;;;;33.43;11.07;;;;;;;40.51;35.41;101076.06;6153169;23;20984;-93
2023/03/01 06:23:45;;;;;;;22.47;12.00;;;;;;;40.54;35.16;101065.38;6119581;23;20393;-92
2023/03/01 06:26:11;;;;;;;26.67;12.30;;;;;;;40.43;35.64;101063.25;6155012;23;20389;-88
2023/03/01 06:28:37;;;;;;;31.33;13.77;;;;;;;40.64;35.37;101075.16;6152551;23;20421;-87
2023/03/01 06:31:03;;;;;;;30.73;12.77;;;;;;;40.75;35.24;101081.03;6153035;23;20444;-87
2023/03/01 06:33:29;;;;;;;21.57;11.80;;;;;;;40.77;35.08;101090.50;6153864;23;20393;-90
2023/03/01 06:36:00;;;;;;;26.80;12.20;;;;;;;40.72;35.18;101084.41;6154517;23;20443;-93
2023/03/01 06:38:26;;;;;;;32.70;12.80;;;;;;;40.81;35.08;101079.75;6154519;23;20385;-89
2023/03/01 06:41:12;;;;;;;28.00;14.47;;;;;;;40.87;34.96;101080.41;6160747;23;20435;-86
2023/03/01 06:43:39;;;;;;;27.10;13.83;;;;;;;40.79;35.36;101093.69;6165640;23;20420;-96
2023/03/01 06:46:22;;;;;;;28.13;13.83;;;;;;;40.84;34.83;101094.66;6176753;23;20932;-94
2023/03/01 06:48:55;;;;;;;29.23;14.37;;;;;;;40.80;35.00;101106.16;6185154;23;20403;-92
2023/03/01 06:51:22;;;;;;;26.20;13.30;;;;;;;40.50;35.52;101112.53;6157230;23;20384;-93
2023/03/01 06:53:48;;;;;;;21.23;11.53;;;;;;;40.58;35.60;101106.34;6130777;23;20388;-90
2023/03/01 06:56:14;;;;;;;34.73;13.57;;;;;;;40.70;35.41;101119.28;6156470;23;20818;-89
2023/03/01 06:58:42;;;;;;;31.97;14.50;;;;;;;40.89;35.14;101117.06;6158121;23;20392;-88
2023/03/01 07:01:33;;;;;;;29.83;14.33;;;;;;;40.83;35.52;101128.44;6156582;23;20431;-91
2023/03/01 07:03:59;;;;;;;37.23;13.00;;;;;;;40.90;34.98;101123.28;6161622;23;20388;-96
2023/03/01 07:06:25;;;;;;;32.87;15.40;;;;;;;41.10;35.02;101130.81;6159087;23;20423;-90
2023/03/01 07:08:51;;;;;;;31.93;12.37;;;;;;;41.07;34.57;101132.28;6158997;23;20390;-94
2023/03/01 07:11:17;;;;;;;43.60;13.67;;;;;;;41.16;35.28;101139.63;6158056;23;20431;-90
2023/03/01 07:13:43;;;;;;;39.00;17.03;;;;;;;41.02;34.67;101145.25;6158217;23;20399;-86
2023/03/01 07:16:09;;;;;;;30.87;15.50;;;;;;;41.08;35.29;101144.75;6157754;23;20495;-86
2023/03/01 07:18:35;;;;;;;40.57;18.10;;;;;;;41.24;34.92;101147.78;6158221;23;20443;-89
2023/03/01 07:21:09;;;;;;;34.33;16.13;;;;;;;41.27;34.89;101151.78;6158258;23;20440;-87
2023/03/01 07:23:37;;;;;;;31.17;14.87;;;;;;;40.96;35.71;101152.78;6159597;23;20392;-89
2023/03/01 07:26:04;;;;;;;27.70;14.70;;;;;;;40.98;35.78;101157.88;6134498;23;20492;-90
2023/03/01 07:28:35;;;;;;;33.33;17.50;;;;;;;41.18;35.54;101157.22;6156507;23;20388;-89
2023/03/01 07:31:06;;;;;;;32.80;15.80;;;;;;;41.23;35.49;101159.78;6159429;23;20392;-88
2023/03/01 07:33:32;;;;;;;32.30;16.43;;;;;;;41.36;35.20;101163.47;6157945;23;20403;-89
2023/03/01 07:36:01;;;;;;;36.87;14.00;;;;;;;41.44;35.25;101170.06;6158716;23;20388;-90
2023/03/01 07:38:27;;;;;;;45.27;16.97;;;;;;;41.48;35.11;101174.50;6160214;23;20458;-87
2023/03/01 07:41:05;;;;;;;34.03;15.50;;;;;;;41.16;36.12;101173.09;6157929;23;20420;-91
2023/03/01 07:43:34;;;;;;;29.67;12.60;;;;;;;41.19;35.50;101168.91;6136478;23;20411;-88
2023/03/01 07:46:01;;;;;;;25.13;12.00;;;;;;;41.39;35.13;101165.56;6133931;23;20522;-87
2023/03/01 07:48:28;;;;;;;24.47;12.87;;;;;;;41.27;35.14;101170.84;6158974;23;20769;-92
2023/03/01 07:50:54;;;;;;;33.57;14.50;;;;;;;41.28;35.47;101167.78;6158267;23;20471;-85
2023/03/01 07:53:20;;;;;;;31.60;14.07;;;;;;;41.50;35.46;101171.47;6156858;23;20416;-86
2023/03/01 07:55:46;;;;;;;27.77;12.40;;;;;;;41.76;34.56;101171.44;6156404;23;20388;-86
2023/03/01 07:58:12;;;;;;;26.23;12.50;;;;;;;41.85;34.30;101172.19;6156181;23;20388;-90
2023/03/01 08:00:38;;;;;;;16.60;8.97;;;;;;;41.65;33.08;101173.66;6156493;23;20428;-92
2023/03/01 08:03:04;;;;;;;14.87;8.83;;;;;;;41.84;32.89;101176.03;6156758;23;20384;-89
2023/03/01 08:05:30;;;;;;;21.90;9.20;;;;;;;41.75;32.70;101184.25;6159736;23;20399;-90
2023/03/01 08:08:08;;;;;;;19.50;10.33;;;;;;;41.96;32.32;101188.97;6163720;23;20384;-90
2023/03/01 08:10:33;;;;;;;26.17;11.07;;;;;;;41.92;32.47;101188.03;6181166;23;20722;-93
2023/03/01 08:13:01;;;;;;;17.30;8.80;;;;;;;42.00;32.25;101184.50;6185980;23;20388;-90
2023/03/01 08:15:27;;;;;;;15.50;8.40;;;;;;;41.82;32.62;101194.66;6159198;23;20479;-93
2023/03/01 08:18:06;;;;;;;20.07;8.70;;;;;;;41.94;32.83;101197.50;6158648;23;20426;-94
2023/03/01 08:20:32;;;;;;;18.57;8.73;;;;;;;41.95;33.31;101201.00;6158328;23;20392;-90
2023/03/01 08:22:58;;;;;;;21.90;8.30;;;;;;;42.07;33.10;101212.03;6162364;23;20392;-88
2023/03/01 08:25:24;;;;;;;20.07;8.03;;;;;;;42.10;32.62;101214.09;6156434;23;20466;-88
2023/03/01 08:27:50;;;;;;;27.33;8.00;;;;;;;42.23;32.53;101220.47;6158362;23;20442;-87
2023/03/01 08:30:24;;;;;;;16.03;7.40;;;;;;;42.18;32.94;101221.47;6156539;23;20384;-88
2023/03/01 08:32:51;;;;;;;20.27;9.03;;;;;;;42.14;33.54;101225.94;6157094;23;20463;-88
2023/03/01 08:35:17;;;;;;;28.67;8.30;;;;;;;42.31;32.90;101223.16;6157744;23;20384;-88
2023/03/01 08:37:43;;;;;;;20.10;9.47;;;;;;;42.38;33.04;101236.28;6157981;23;20731;-89
2023/03/01 08:40:10;;;;;;;22.83;9.87;;;;;;;42.37;33.39;101229.25;6157739;23;20412;-90
2023/03/01 08:42:37;;;;;;;16.33;9.33;;;;;;;42.42;32.93;101244.59;6156909;23;20439;-86
2023/03/01 08:45:04;;;;;;;28.23;12.10;;;;;;;42.42;32.85;101244.59;6159001;23;20387;-87
2023/03/01 08:47:30;;;;;;;16.23;8.57;;;;;;;42.50;32.89;101246.50;6159155;23;20447;-87
2023/03/01 08:49:55;;;;;;;19.90;8.77;;;;;;;42.58;32.64;101254.66;6159117;23;20408;-85
2023/03/01 08:52:22;;;;;;;20.80;8.83;;;;;;;42.61;32.64;101262.19;6159131;23;20455;-88
2023/03/01 08:54:49;;;;;;;19.77;9.30;;;;;;;42.67;32.51;101268.25;6159481;23;20172;-84
2023/03/01 08:57:15;;;;;;;26.87;11.87;;;;;;;42.74;32.57;101267.72;6158960;23;20909;-76
2023/03/01 08:59:41;;;;;;;19.30;8.27;;;;;;;42.73;32.85;101264.22;6159139;23;20385;-79
2023/03/01 09:02:13;;;;;;;20.13;9.77;;;;;;;42.77;32.62;101270.59;6158655;23;20503;-79
2023/03/01 09:04:40;;;;;;;21.63;11.30;;;;;;;42.79;32.42;101268.34;6158725;23;20392;-79
2023/03/01 09:07:06;;;;;;;22.00;8.83;;;;;;;42.80;32.35;101271.88;6158985;23;20847;-79
2023/03/01 09:09:32;;;;;;;26.47;9.27;;;;;;;42.81;32.61;101274.25;6159062;23;20412;-79
2023/03/01 09:11:58;;;;;;;18.73;8.73;;;;;;;42.83;32.74;101266.53;6159107;23;20455;-81
2023/03/01 09:14:24;;;;;;;15.43;9.07;;;;;;;42.75;32.17;101269.31;6159171;23;20380;-77
2023/03/01 09:16:50;;;;;;;17.50;9.03;;;;;;;42.74;31.92;101274.00;6158947;23;20850;-80
2023/03/01 09:19:16;;;;;;;13.93;7.87;;;;;;;42.75;32.03;101269.31;6158956;23;20415;-83
2023/03/01 09:21:51;;;;;;;24.10;7.77;;;;;;;42.80;31.96;101272.66;6159364;23;20463;-82
2023/03/01 09:24:19;;;;;;;21.27;9.60;;;;;;;42.81;32.07;101271.53;6159269;23;20738;-80
2023/03/01 09:27:19;;;;;;;18.97;8.60;;;;;;;42.84;32.28;101275.50;6158581;23;20388;-83
2023/03/01 09:30:05;;;;;;;18.30;9.87;;;;;;;42.82;32.17;101275.06;6186386;23;20361;-84
2023/03/01 09:32:31;;;;;;;17.00;7.30;;;;;;;42.83;32.21;101282.09;6185443;23;20364;-82
2023/03/01 09:35:00;;;;;;;14.00;7.47;;;;;;;42.80;32.19;101278.13;6159012;23;20384;-81
2023/03/01 09:37:27;;;;;;;19.43;7.30;;;;;;;42.80;32.00;101282.78;6185765;23;20361;-82
2023/03/01 09:39:53;;;;;;;12.33;8.13;;;;;;;42.82;31.36;101278.59;6158642;23;20919;-81
2023/03/01 09:42:19;;;;;;;18.73;7.73;;;;;;;42.85;29.92;101290.78;6159223;23;20424;-81
2023/03/01 09:44:54;;;;;;;14.87;7.10;;;;;;;42.90;30.49;101294.09;6157747;23;20165;-80
2023/03/01 09:47:32;;;;;;;20.30;8.50;;;;;;;42.93;29.94;101298.91;6153696;23;20444;-79
2023/03/01 09:50:19;;;;;;;16.17;7.00;;;;;;;42.95;29.73;101301.28;6154071;23;20432;-81
2023/03/01 09:53:04;;;;;;;24.63;8.80;;;;;;;42.92;30.06;101299.25;6153496;23;20946;-81
2023/03/01 09:56:01;;;;;;;30.33;11.30;;;;;;;42.93;30.57;101292.66;6153884;23;20480;-84
2023/03/01 09:58:27;;;;;;;19.70;7.63;;;;;;;43.04;30.46;101287.63;6107083;23;20484;-83
2023/03/01 11:36:54;;;;;;;18.80;9.10;;;;;;;43.00;32.02;101134.63;6044043;22;2557343;-89
2023/03/01 11:39:29;;;;;;;16.87;9.37;;;;;;;42.93;31.77;101134.34;6183930;23;20173;-88
2023/03/01 11:42:44;;;;;;;20.10;8.90;;;;;;;42.98;31.85;101127.91;6159950;23;20387;-85
2023/03/01 11:45:12;;;;;;;16.50;8.47;;;;;;;43.08;31.90;101128.28;6117721;23;20871;-83
2023/03/01 11:48:00;;;;;;;12.70;8.17;;;;;;;43.01;32.08;101119.84;6158389;23;20467;-82
2023/03/01 11:50:50;;;;;;;16.93;8.07;;;;;;;42.86;32.64;101110.34;6158474;23;20480;-89
2023/03/01 11:53:25;;;;;;;14.97;8.57;;;;;;;43.01;32.52;101113.59;6184741;23;20377;-82
2023/03/01 11:56:12;;;;;;;16.87;8.03;;;;;;;42.93;32.26;101104.34;6158476;23;20411;-87
2023/03/01 11:59:23;;;;;;;18.83;8.67;;;;;;;43.09;32.54;101099.06;6159773;23;20388;-91
2023/03/01 12:02:43;;;;;;;15.20;9.33;;;;;;;43.19;32.49;101096.72;6161689;23;20395;-94
2023/03/01 12:06:03;;;;;;;17.13;7.87;;;;;;;43.28;32.19;101087.63;6068484;23;20391;-93
2023/03/01 12:08:42;;;;;;;18.57;9.57;;;;;;;43.28;32.21;101082.97;6049865;23;20392;-95
2023/03/01 12:11:22;;;;;;;23.43;9.87;;;;;;;43.26;32.38;101076.25;6053306;23;20459;-96
2023/03/01 12:14:07;;;;;;;13.30;7.73;;;;;;;43.35;32.39;101064.09;6066976;23;20388;-93
2023/03/01 12:17:03;;;;;;;15.10;8.77;;;;;;;43.40;32.20;101057.63;6042632;23;20384;-89
2023/03/01 12:19:35;;;;;;;21.23;9.00;;;;;;;43.41;32.20;101051.84;6042527;23;20484;-91
2023/03/01 12:22:09;;;;;;;22.53;8.60;;;;;;;43.40;32.02;101050.25;6133205;23;20443;-93
2023/03/01 12:24:57;;;;;;;17.90;8.50;;;;;;;43.41;32.25;101043.66;6162984;23;20779;-95
2023/03/01 12:27:44;;;;;;;15.63;7.40;;;;;;;43.41;32.16;101049.13;6160364;23;20472;-91
2023/03/01 12:30:29;;;;;;;18.80;8.47;;;;;;;43.44;31.76;101044.88;6157789;23;20447;-92
2023/03/01 12:33:05;;;;;;;17.57;9.50;;;;;;;43.47;32.07;101038.75;6159216;23;20399;-89
2023/03/01 12:35:55;;;;;;;19.70;9.33;;;;;;;43.45;31.76;101028.16;6138003;23;20786;-93
2023/03/01 12:38:25;;;;;;;16.20;7.80;;;;;;;43.47;31.62;101032.50;6102199;23;20402;-91
2023/03/01 12:41:45;;;;;;;14.50;8.47;;;;;;;43.41;31.57;101016.34;6102749;23;20382;-93
2023/03/01 12:44:55;;;;;;;15.87;8.53;;;;;;;43.46;31.98;101012.56;6082129;23;20402;-93
2023/03/01 12:48:05;;;;;;;16.50;9.53;;;;;;;43.45;31.50;101003.56;6117918;23;20410;-89
2023/03/01 12:50:46;;;;;;;16.63;8.50;;;;;;;43.45;31.62;100995.38;6099968;23;20505;-93
2023/03/01 12:53:32;;;;;;;17.80;8.47;;;;;;;43.41;32.38;100990.97;6100051;23;20850;-90
2023/03/01 12:56:25;;;;;;;20.73;8.67;;;;;;;43.45;31.91;100975.47;6099723;23;20425;-94
2023/03/01 12:59:12;;;;;;;22.27;8.17;;;;;;;43.44;32.20;100979.34;6100216;23;20739;-88
2023/03/01 13:02:19;;;;;;;18.60;10.10;;;;;;;43.33;32.48;100973.50;6099419;23;20464;-88
2023/03/01 13:05:22;;;;;;;19.80;7.70;;;;;;;43.36;32.01;100972.84;6057919;23;20397;-90
2023/03/01 13:08:22;;;;;;;23.60;9.13;;;;;;;43.31;31.88;100975.78;6131046;23;20744;-89
2023/03/01 13:10:58;;;;;;;20.63;9.63;;;;;;;43.02;32.73;100962.34;6057418;23;20437;-90
2023/03/01 13:13:33;;;;;;;16.70;7.87;;;;;;;42.96;32.53;100967.19;6100926;23;20389;-95
2023/03/01 13:16:39;;;;;;;22.20;9.47;;;;;;;43.11;32.42;100952.13;6104945;23;20389;-96
2023/03/01 13:19:17;;;;;;;26.13;9.40;;;;;;;43.02;32.50;100952.22;6100183;23;20390;-88
2023/03/01 13:21:46;;;;;;;22.83;10.17;;;;;;;43.12;32.57;100938.13;6100047;23;20388;-87
2023/03/01 13:24:31;;;;;;;22.00;9.93;;;;;;;43.24;32.31;100931.88;6100279;23;20401;-88
2023/03/01 13:27:06;;;;;;;19.87;9.37;;;;;;;43.10;32.29;100934.16;6099956;23;20437;-88
2023/03/01 13:29:54;;;;;;;17.17;8.00;;;;;;;43.36;31.97;100923.69;6099962;23;20520;-91